Time;durP1;ratioP1;P1;durP2;ratioP2;P2;SDS_P1;SDS_P2;PMS_P1;PMS_P2;Temp;Humidity;BMP_temperature;BMP_pressure;BME280_temperature;BME280_humidity;BME280_pressure;Samples;Min_cycle;Max_cycle;Signal;HPM_P1;HPM_P2
2023/01/07 00:01:14;;;;;;;171.18;9.85;;;;;;;0.54;100.00;93164.59;4996385;28;20038;-82
2023/01/07 00:03:40;;;;;;;19.10;7.78;;;;;;;0.50;100.00;93171.16;4996844;28;20053;-82
2023/01/07 00:06:20;;;;;;;17.25;7.90;;;;;;;0.43;100.00;93169.59;4995062;28;20033;-81
2023/01/07 00:08:48;;;;;;;18.05;7.25;;;;;;;0.38;100.00;93167.66;5006991;28;20053;-82
2023/01/07 00:11:25;;;;;;;13.93;5.97;;;;;;;0.33;100.00;93163.13;5016196;28;20117;-82
2023/01/07 00:13:52;;;;;;;12.80;5.40;;;;;;;0.32;100.00;93163.34;5001800;28;20050;-82
2023/01/07 00:16:20;;;;;;;11.43;5.57;;;;;;;0.27;100.00;93155.44;4976622;28;20027;-82
2023/01/07 00:18:47;;;;;;;8.18;4.15;;;;;;;0.24;100.00;93151.47;4990213;28;20034;-82
2023/01/07 00:21:15;;;;;;;55.22;7.50;;;;;;;0.18;100.00;93153.13;4990925;28;20042;-81
2023/01/07 00:23:42;;;;;;;152.07;10.43;;;;;;;0.13;100.00;93150.34;4990864;28;20033;-81
2023/01/07 00:26:16;;;;;;;739.97;21.95;;;;;;;0.09;100.00;93154.34;4995547;28;20045;-82
2023/01/07 00:28:44;;;;;;;56.28;12.05;;;;;;;0.16;100.00;93155.09;4979885;28;20041;-80
2023/01/07 00:31:21;;;;;;;887.28;23.38;;;;;;;0.20;100.00;93156.28;4995914;28;20046;-81
2023/01/07 00:34:05;;;;;;;705.60;20.95;;;;;;;0.23;100.00;93147.34;4995691;28;20083;-81
2023/01/07 00:36:36;;;;;;;668.03;20.10;;;;;;;0.30;100.00;93142.94;4973980;28;20034;-81
2023/01/07 00:39:04;;;;;;;623.72;19.35;;;;;;;0.34;100.00;93145.91;5003212;28;20049;-81
2023/01/07 00:41:30;;;;;;;420.38;16.60;;;;;;;0.34;100.00;93140.75;4979614;28;20026;-81
2023/01/07 00:43:56;;;;;;;520.78;16.40;;;;;;;0.33;100.00;93139.16;4999748;28;20049;-81
2023/01/07 00:46:22;;;;;;;468.60;14.85;;;;;;;0.22;100.00;93124.38;5014590;28;20077;-81
2023/01/07 00:48:48;;;;;;;664.75;18.58;;;;;;;0.17;100.00;93133.50;5016422;28;20374;-80
2023/01/07 00:51:15;;;;;;;617.45;17.15;;;;;;;0.18;100.00;93132.50;4999079;28;20050;-82
2023/01/07 00:53:41;;;;;;;496.88;16.33;;;;;;;0.18;100.00;93137.66;5010599;28;20038;-80
2023/01/07 00:56:09;;;;;;;452.85;16.17;;;;;;;0.17;100.00;93128.34;4998511;28;20065;-80
2023/01/07 00:58:34;;;;;;;447.08;15.02;;;;;;;0.13;100.00;93122.03;5014381;28;20026;-80
2023/01/07 01:01:01;;;;;;;503.98;16.25;;;;;;;0.10;100.00;93124.25;5006252;28;20046;-82
2023/01/07 01:03:28;;;;;;;103.63;9.60;;;;;;;0.05;100.00;93126.66;4994846;28;20045;-82
2023/01/07 01:06:00;;;;;;;15.85;6.70;;;;;;;0.02;100.00;93114.94;4974952;28;20085;-81
2023/01/07 01:08:26;;;;;;;12.77;5.55;;;;;;;0.10;100.00;93119.09;4976557;28;20086;-81
2023/01/07 01:10:51;;;;;;;55.80;6.88;;;;;;;0.24;100.00;93120.59;4980169;28;20039;-81
2023/01/07 01:13:18;;;;;;;149.07;9.88;;;;;;;0.22;100.00;93121.78;4978238;28;20532;-81
2023/01/07 01:15:45;;;;;;;430.65;13.98;;;;;;;0.15;100.00;93120.03;5015979;28;20030;-80
2023/01/07 01:18:11;;;;;;;397.08;15.27;;;;;;;0.07;100.00;93104.84;5015554;28;20087;-81
2023/01/07 01:20:37;;;;;;;375.27;13.75;;;;;;;0.08;100.00;93111.56;5014796;28;20121;-81
2023/01/07 01:23:03;;;;;;;184.40;10.23;;;;;;;0.04;100.00;93114.75;5000064;28;20177;-81
2023/01/07 01:25:29;;;;;;;399.52;13.10;;;;;;;0.09;100.00;93110.59;4994209;28;20436;-80
2023/01/07 01:27:54;;;;;;;242.60;10.60;;;;;;;0.03;100.00;93116.53;4990701;28;20034;-80
2023/01/07 01:30:20;;;;;;;356.63;13.57;;;;;;;0.00;100.00;93114.41;4993412;28;20030;-81
2023/01/07 01:32:46;;;;;;;315.30;13.52;;;;;;;-0.01;100.00;93110.22;4990840;28;20035;-81
2023/01/07 01:35:12;;;;;;;125.68;9.40;;;;;;;-0.05;100.00;93107.25;4963475;28;20042;-81
2023/01/07 01:37:38;;;;;;;45.70;8.40;;;;;;;-0.04;100.00;93102.94;4981402;28;20045;-81
2023/01/07 01:40:05;;;;;;;399.80;13.65;;;;;;;0.04;100.00;93102.66;4988260;28;20034;-81
2023/01/07 01:42:32;;;;;;;65.28;8.38;;;;;;;-0.02;100.00;93109.44;4976954;28;20062;-80
2023/01/07 01:45:00;;;;;;;14.80;5.93;;;;;;;0.01;100.00;93112.59;4993886;28;20046;-80
2023/01/07 01:47:46;;;;;;;10.35;4.68;;;;;;;0.07;100.00;93112.56;4993483;28;20030;-81
2023/01/07 01:50:21;;;;;;;7.45;4.00;;;;;;;0.16;100.00;93103.59;5009755;28;20046;-80
2023/01/07 01:52:56;;;;;;;12.63;4.43;;;;;;;0.30;100.00;93109.47;4994052;28;20023;-80
2023/01/07 01:55:29;;;;;;;8.23;4.32;;;;;;;0.41;100.00;93105.44;4994716;28;20038;-81
2023/01/07 01:58:01;;;;;;;8.80;4.20;;;;;;;0.47;100.00;93093.50;4990041;28;20041;-80
2023/01/07 02:00:27;;;;;;;9.50;4.25;;;;;;;0.59;100.00;93105.50;4992769;28;20471;-81
2023/01/07 02:02:58;;;;;;;11.40;4.47;;;;;;;0.67;100.00;93101.88;4992906;28;20492;-81
2023/01/07 02:05:31;;;;;;;9.82;4.65;;;;;;;0.72;100.00;93102.03;4977605;28;20034;-81
2023/01/07 02:07:57;;;;;;;10.43;4.72;;;;;;;0.77;100.00;93106.56;4972987;28;20043;-81
2023/01/07 02:10:24;;;;;;;11.95;5.18;;;;;;;0.79;100.00;93100.19;4995761;28;20061;-81
2023/01/07 02:13:09;;;;;;;8.60;4.28;;;;;;;0.85;100.00;93108.88;5012868;28;20618;-81
2023/01/07 02:16:07;;;;;;;10.98;4.50;;;;;;;0.86;100.00;93107.88;5013049;28;20035;-81
2023/01/07 02:18:45;;;;;;;11.38;4.63;;;;;;;0.89;100.00;93104.88;4968250;28;20157;-80
2023/01/07 02:21:36;;;;;;;9.45;4.13;;;;;;;0.90;100.00;93103.88;4995394;28;20129;-81
2023/01/07 02:24:26;;;;;;;8.15;4.15;;;;;;;0.91;100.00;93100.28;4982040;28;20110;-81
2023/01/07 02:27:14;;;;;;;7.63;3.92;;;;;;;0.93;100.00;93108.59;5008743;28;20057;-80
2023/01/07 02:30:09;;;;;;;8.27;4.05;;;;;;;0.92;100.00;93101.84;4995084;28;20030;-80
2023/01/07 02:32:55;;;;;;;6.65;3.38;;;;;;;0.90;100.00;93101.31;4995767;28;20042;-81
2023/01/07 02:35:29;;;;;;;9.23;4.00;;;;;;;0.89;100.00;93101.50;4988330;28;20082;-81
2023/01/07 02:38:40;;;;;;;8.35;3.90;;;;;;;0.84;100.00;93099.56;4975808;28;20031;-80
2023/01/07 02:41:42;;;;;;;5.60;3.03;;;;;;;0.86;100.00;93096.75;4975834;28;20045;-80
2023/01/07 02:44:54;;;;;;;8.63;3.80;;;;;;;0.85;100.00;93095.97;4958774;28;20046;-81
2023/01/07 02:47:36;;;;;;;8.38;3.65;;;;;;;0.83;100.00;93092.81;4979276;28;20073;-81
2023/01/07 02:50:05;;;;;;;7.78;3.63;;;;;;;0.81;100.00;93087.06;4977652;28;20035;-81
2023/01/07 02:52:32;;;;;;;5.60;3.20;;;;;;;0.79;100.00;93086.53;4993975;28;20366;-81
2023/01/07 02:55:05;;;;;;;8.18;3.50;;;;;;;0.80;100.00;93088.88;4993433;28;20395;-80
2023/01/07 02:57:52;;;;;;;6.63;2.90;;;;;;;0.77;100.00;93086.72;4977841;28;20106;-79
2023/01/07 03:00:52;;;;;;;7.85;3.45;;;;;;;0.79;100.00;93089.09;4993074;28;20030;-79
2023/01/07 03:03:41;;;;;;;6.13;3.20;;;;;;;0.75;100.00;93085.38;4993683;28;20033;-80
2023/01/07 03:06:16;;;;;;;6.78;3.08;;;;;;;0.77;100.00;93088.53;5011129;28;20117;-79
2023/01/07 03:08:47;;;;;;;6.65;3.05;;;;;;;0.78;100.00;93087.50;4981271;28;20062;-80
2023/01/07 03:11:18;;;;;;;7.50;2.90;;;;;;;0.79;100.00;93081.38;4997527;28;20038;-81
2023/01/07 03:13:59;;;;;;;6.53;3.53;;;;;;;0.77;100.00;93078.22;4981375;28;20045;-80
2023/01/07 03:16:34;;;;;;;8.23;3.53;;;;;;;0.80;100.00;93076.00;4980738;28;20493;-81
2023/01/07 03:19:05;;;;;;;9.68;3.97;;;;;;;0.81;100.00;93069.84;4997800;28;20405;-81
2023/01/07 03:21:33;;;;;;;7.30;4.03;;;;;;;0.84;100.00;93066.06;4980500;28;20038;-81
2023/01/07 03:24:00;;;;;;;7.55;3.70;;;;;;;0.85;100.00;93069.41;4980707;28;20034;-81
2023/01/07 03:26:30;;;;;;;7.00;3.58;;;;;;;0.87;100.00;93065.63;4994722;28;20034;-80
2023/01/07 03:29:01;;;;;;;8.88;4.10;;;;;;;0.88;100.00;93072.38;4997111;28;20102;-80
2023/01/07 03:31:29;;;;;;;12.13;4.88;;;;;;;0.85;100.00;93062.47;4993669;28;20051;-80
2023/01/07 03:34:05;;;;;;;9.93;4.72;;;;;;;0.93;100.00;93067.34;4989713;28;20045;-80
2023/01/07 03:36:44;;;;;;;12.63;4.88;;;;;;;0.93;100.00;93061.41;4995541;28;20034;-80
2023/01/07 03:39:12;;;;;;;8.25;4.50;;;;;;;0.98;100.00;93062.34;4995579;28;20435;-81
2023/01/07 03:44:24;;;;;;;7.68;4.80;;;;;;;1.02;100.00;93060.94;4995149;28;20121;-80
2023/01/07 03:46:51;;;;;;;9.25;5.38;;;;;;;1.06;100.00;93060.47;4991884;28;20131;-80
2023/01/07 03:49:17;;;;;;;12.68;5.35;;;;;;;1.06;100.00;93058.72;5017120;28;20128;-80
2023/01/07 03:51:42;;;;;;;10.20;5.38;;;;;;;1.03;100.00;93057.31;4999877;28;20050;-80
2023/01/07 03:54:08;;;;;;;14.13;5.25;;;;;;;1.11;100.00;93055.50;4980404;28;20041;-80
2023/01/07 03:56:34;;;;;;;11.40;5.30;;;;;;;1.08;100.00;93054.13;4968130;28;20066;-82
2023/01/07 03:59:00;;;;;;;12.57;5.20;;;;;;;1.11;100.00;93058.06;4979220;28;20034;-81
2023/01/07 04:01:26;;;;;;;10.77;5.57;;;;;;;1.12;100.00;93054.47;4961004;28;20386;-81
2023/01/07 04:03:52;;;;;;;11.00;5.65;;;;;;;1.17;100.00;93064.94;4995496;28;20057;-80
2023/01/07 04:06:18;;;;;;;9.23;4.90;;;;;;;1.19;100.00;93062.94;4994663;28;20039;-80
2023/01/07 04:08:44;;;;;;;9.77;5.20;;;;;;;1.19;100.00;93056.00;4977211;28;20431;-80
2023/01/07 04:11:10;;;;;;;10.25;5.15;;;;;;;1.18;100.00;93048.47;4977322;28;20102;-81
2023/01/07 04:13:36;;;;;;;11.32;5.45;;;;;;;1.22;100.00;93054.78;4986452;28;20062;-80
2023/01/07 04:16:02;;;;;;;11.43;5.50;;;;;;;1.19;100.00;93050.84;4977608;28;20047;-80
2023/01/07 04:18:28;;;;;;;13.63;6.43;;;;;;;1.22;100.00;93054.78;4960931;28;20062;-80
2023/01/07 04:20:53;;;;;;;9.18;5.18;;;;;;;1.24;100.00;93052.78;4977297;28;20104;-80
2023/01/07 04:23:19;;;;;;;11.60;5.70;;;;;;;1.24;100.00;93042.47;4978780;28;20134;-81
2023/01/07 04:25:48;;;;;;;13.15;5.50;;;;;;;1.21;100.00;93045.47;4979012;28;20035;-81
2023/01/07 04:28:18;;;;;;;9.20;4.55;;;;;;;1.22;100.00;93054.78;4976733;28;20030;-81
2023/01/07 04:30:43;;;;;;;8.70;4.53;;;;;;;1.22;100.00;93055.56;4990487;28;20379;-79
2023/01/07 04:33:09;;;;;;;8.82;4.65;;;;;;;1.24;100.00;93048.41;4997698;28;20549;-78
2023/01/07 04:35:38;;;;;;;9.05;4.72;;;;;;;1.26;100.00;93050.75;4979765;28;20042;-78
2023/01/07 04:38:04;;;;;;;10.20;4.50;;;;;;;1.27;100.00;93043.81;4984000;28;20042;-79
2023/01/07 04:40:30;;;;;;;11.82;5.40;;;;;;;1.22;100.00;93044.47;4979827;28;20039;-80
2023/01/07 04:42:56;;;;;;;7.78;4.93;;;;;;;1.24;100.00;93052.78;4960465;28;20521;-81
2023/01/07 04:45:22;;;;;;;8.20;4.65;;;;;;;1.24;100.00;93048.41;4959847;28;20336;-81
2023/01/07 04:47:48;;;;;;;7.38;4.15;;;;;;;1.22;100.00;93044.47;4960722;28;20057;-81
2023/01/07 04:50:14;;;;;;;8.05;4.45;;;;;;;1.22;100.00;93040.09;4979135;28;20038;-79
2023/01/07 04:52:40;;;;;;;9.95;4.60;;;;;;;1.20;100.00;93039.53;4993276;28;20034;-81
2023/01/07 04:55:07;;;;;;;7.85;4.20;;;;;;;1.22;100.00;93036.72;4995474;28;20396;-79
2023/01/07 04:57:32;;;;;;;11.23;4.53;;;;;;;1.22;100.00;93040.09;4993938;28;20100;-81
2023/01/07 04:59:58;;;;;;;11.07;4.72;;;;;;;1.24;100.00;93038.09;5001816;28;20037;-79
2023/01/07 05:02:24;;;;;;;9.75;4.32;;;;;;;1.25;100.00;93044.03;5014408;28;20045;-80
2023/01/07 05:04:51;;;;;;;7.50;4.30;;;;;;;1.26;100.00;93045.59;5011091;28;20053;-80
2023/01/07 05:07:19;;;;;;;9.95;4.90;;;;;;;1.26;100.00;93037.84;4989665;28;20058;-80
2023/01/07 05:09:44;;;;;;;9.38;4.60;;;;;;;1.28;100.00;93041.00;4975946;28;20042;-80
2023/01/07 05:12:10;;;;;;;12.02;4.25;;;;;;;1.30;100.00;93039.00;4976129;28;20122;-79
2023/01/07 05:14:37;;;;;;;8.43;4.25;;;;;;;1.34;100.00;93036.81;4960277;28;20489;-79
2023/01/07 05:17:02;;;;;;;7.43;4.10;;;;;;;1.34;100.00;93047.91;4972981;28;20045;-79
2023/01/07 05:19:30;;;;;;;9.75;4.43;;;;;;;1.35;100.00;93046.09;4979461;28;20046;-78
2023/01/07 05:21:55;;;;;;;10.25;4.55;;;;;;;1.34;100.00;93045.31;4979003;28;20042;-81
2023/01/07 05:24:21;;;;;;;8.52;4.55;;;;;;;1.36;100.00;93047.69;4994560;28;20046;-81
2023/01/07 05:26:46;;;;;;;9.20;4.32;;;;;;;1.34;100.00;93041.97;4993968;28;20054;-81
2023/01/07 05:29:14;;;;;;;9.32;4.80;;;;;;;1.37;100.00;93057.00;4994878;28;20041;-81
2023/01/07 05:31:42;;;;;;;10.38;4.30;;;;;;;1.38;100.00;93053.44;4994870;28;20125;-81
2023/01/07 05:34:08;;;;;;;6.78;4.35;;;;;;;1.40;100.00;93054.00;4995168;28;20039;-80
2023/01/07 05:36:33;;;;;;;9.35;4.72;;;;;;;1.36;100.00;93039.94;4978088;28;20563;-80
2023/01/07 05:38:59;;;;;;;7.97;4.30;;;;;;;1.40;100.00;93049.63;4990363;28;20092;-80
2023/01/07 05:41:25;;;;;;;9.10;5.05;;;;;;;1.40;100.00;93052.19;4958711;28;20034;-79
2023/01/07 05:43:51;;;;;;;10.27;4.57;;;;;;;1.41;100.00;93053.78;4975104;28;20039;-80
2023/01/07 05:46:17;;;;;;;8.45;4.78;;;;;;;1.43;100.00;93050.97;4974539;28;20061;-78
2023/01/07 05:48:42;;;;;;;10.52;4.65;;;;;;;1.44;100.00;93050.78;4976479;28;20405;-79
2023/01/07 05:51:08;;;;;;;11.57;4.93;;;;;;;1.45;100.00;93054.13;4975936;28;20026;-80
2023/01/07 05:53:33;;;;;;;12.75;5.03;;;;;;;1.45;100.00;93048.97;4988879;28;20050;-79
2023/01/07 05:56:00;;;;;;;11.00;5.05;;;;;;;1.44;100.00;93047.38;4978955;28;20106;-80
2023/01/07 05:58:27;;;;;;;9.27;4.35;;;;;;;1.42;100.00;93037.31;4993972;28;20034;-79
2023/01/07 06:00:53;;;;;;;12.43;4.65;;;;;;;1.43;100.00;93048.41;4996016;28;20045;-80
2023/01/07 06:03:20;;;;;;;9.40;4.30;;;;;;;1.49;100.00;93044.16;4993768;28;20113;-79
2023/01/07 06:05:46;;;;;;;7.35;4.38;;;;;;;1.48;100.00;93050.34;5010136;28;20038;-81
2023/01/07 06:08:12;;;;;;;7.88;4.30;;;;;;;1.49;100.00;93046.72;4994341;28;20353;-79
2023/01/07 06:10:39;;;;;;;8.50;4.43;;;;;;;1.49;100.00;93051.91;4986106;28;20416;-79
2023/01/07 06:13:04;;;;;;;9.43;4.40;;;;;;;1.43;100.00;93043.25;5003085;28;20102;-79
2023/01/07 06:15:30;;;;;;;8.20;4.03;;;;;;;1.47;100.00;93051.34;4998063;28;20120;-81
2023/01/07 06:17:56;;;;;;;7.93;4.45;;;;;;;1.47;100.00;93046.19;4997208;28;20452;-81
2023/01/07 06:20:22;;;;;;;10.80;4.93;;;;;;;1.50;100.00;93056.84;4997248;28;20053;-80
2023/01/07 06:22:48;;;;;;;8.75;5.03;;;;;;;1.52;100.00;93054.84;4980298;28;20042;-80
2023/01/07 06:25:13;;;;;;;10.25;4.20;;;;;;;1.50;100.00;93048.31;4981653;28;20034;-81
2023/01/07 06:27:39;;;;;;;8.85;4.70;;;;;;;1.56;100.00;93052.63;4995887;28;20041;-81
2023/01/07 06:30:07;;;;;;;8.52;4.72;;;;;;;1.58;100.00;93063.53;4992056;28;20030;-81
2023/01/07 06:32:40;;;;;;;10.68;4.53;;;;;;;1.55;100.00;93043.28;4976177;28;20126;-79
2023/01/07 06:35:08;;;;;;;9.95;4.78;;;;;;;1.60;100.00;93053.75;4977407;28;20042;-81
2023/01/07 06:37:34;;;;;;;7.68;4.38;;;;;;;1.67;100.00;93059.66;4990961;28;20472;-81
2023/01/07 06:39:59;;;;;;;8.90;4.10;;;;;;;1.72;100.00;93059.78;4996992;28;20045;-79
2023/01/07 06:42:25;;;;;;;7.28;4.78;;;;;;;1.75;100.00;93054.16;4994263;28;20576;-83
2023/01/07 06:44:51;;;;;;;7.68;4.38;;;;;;;1.81;100.00;93058.47;4988845;28;20045;-81
2023/01/07 06:47:17;;;;;;;8.20;4.53;;;;;;;1.86;100.00;93074.09;5035736;28;20053;-81
2023/01/07 06:49:43;;;;;;;8.50;4.05;;;;;;;1.92;100.00;93072.44;5034766;28;20041;-81
2023/01/07 06:52:09;;;;;;;9.88;4.70;;;;;;;1.94;100.00;93067.06;5033793;28;20041;-82
2023/01/07 06:54:34;;;;;;;9.68;4.43;;;;;;;2.00;100.00;93068.75;5035420;28;20464;-81
2023/01/07 06:57:00;;;;;;;8.65;4.68;;;;;;;2.05;100.00;93069.69;5033510;28;20041;-80
2023/01/07 06:59:25;;;;;;;8.15;4.60;;;;;;;2.11;100.00;93073.16;5035120;28;20045;-81
2023/01/07 07:01:51;;;;;;;10.43;4.40;;;;;;;2.16;100.00;93073.31;5033335;28;20030;-80
2023/01/07 07:04:17;;;;;;;8.95;4.50;;;;;;;2.21;100.00;93068.28;5035080;28;20385;-81
2023/01/07 07:06:43;;;;;;;8.27;4.13;;;;;;;2.25;100.00;93064.25;5030937;28;20061;-80
2023/01/07 07:09:08;;;;;;;9.23;3.97;;;;;;;2.28;100.00;93066.38;5030738;28;20048;-79
2023/01/07 07:11:34;;;;;;;7.00;4.07;;;;;;;2.36;100.00;93064.47;5032393;28;20033;-82
2023/01/07 07:14:00;;;;;;;10.07;4.28;;;;;;;2.42;100.00;93064.38;5022421;28;20048;-81
2023/01/07 07:16:25;;;;;;;7.20;3.72;;;;;;;2.52;100.00;93069.00;5033712;28;20125;-80
2023/01/07 07:18:52;;;;;;;8.38;4.07;;;;;;;2.59;100.00;93068.91;5034660;28;20044;-81
2023/01/07 07:21:18;;;;;;;8.48;3.97;;;;;;;2.65;100.00;93066.22;5034274;28;20480;-82
2023/01/07 07:23:43;;;;;;;7.90;4.10;;;;;;;2.75;100.00;93067.47;5033442;28;20042;-81
2023/01/07 07:26:09;;;;;;;8.38;4.57;;;;;;;2.79;100.00;93069.41;5033703;28;20041;-81
2023/01/07 07:28:35;;;;;;;6.55;3.80;;;;;;;2.84;100.00;93060.97;5034858;28;20407;-81
2023/01/07 07:31:01;;;;;;;9.85;4.28;;;;;;;3.10;100.00;93064.91;5038589;28;20422;-81
2023/01/07 07:33:27;;;;;;;8.48;3.88;;;;;;;3.37;100.00;93065.22;5039541;28;20037;-81
2023/01/07 07:35:53;;;;;;;9.48;4.18;;;;;;;3.49;100.00;93063.41;5038637;28;20523;-81
2023/01/07 07:38:19;;;;;;;20.60;9.20;;;;;;;3.65;100.00;93072.25;5034296;28;20128;-81
2023/01/07 07:40:46;;;;;;;13.95;8.60;;;;;;;4.22;100.00;93068.13;5037880;28;20072;-82
2023/01/07 07:43:13;;;;;;;7.40;4.60;;;;;;;5.43;100.00;93057.28;5036255;28;20061;-81
2023/01/07 07:45:40;;;;;;;11.57;5.50;;;;;;;6.60;100.00;93057.78;5035428;28;20061;-81
2023/01/07 07:48:07;;;;;;;10.43;6.72;;;;;;;7.59;100.00;93058.19;5035635;28;20045;-82
2023/01/07 07:50:33;;;;;;;8.93;5.85;;;;;;;8.44;100.00;93055.38;5038829;28;20412;-81
2023/01/07 07:52:59;;;;;;;7.80;5.05;;;;;;;9.31;100.00;93062.44;5019775;28;20051;-81
2023/01/07 07:55:25;;;;;;;10.10;4.50;;;;;;;9.92;100.00;93053.66;5040020;28;20029;-82
2023/01/07 07:57:55;;;;;;;8.93;4.57;;;;;;;10.77;100.00;93060.56;5039992;28;20124;-84
2023/01/07 08:00:21;;;;;;;9.88;4.15;;;;;;;11.13;97.98;93055.84;5037064;28;20091;-83
2023/01/07 08:02:46;;;;;;;6.85;3.80;;;;;;;11.18;89.44;93057.63;5038147;28;20041;-83
2023/01/07 08:05:12;;;;;;;6.32;3.28;;;;;;;12.18;81.42;93058.72;5035916;28;20120;-83
2023/01/07 08:07:38;;;;;;;6.18;2.90;;;;;;;11.97;79.36;93049.53;5038435;28;20037;-83
2023/01/07 08:10:05;;;;;;;5.45;3.35;;;;;;;12.21;77.65;93050.28;5007469;28;20033;-83
2023/01/07 08:12:30;;;;;;;8.40;3.22;;;;;;;12.08;81.33;93049.13;5040522;28;20037;-83
2023/01/07 08:14:56;;;;;;;6.88;3.60;;;;;;;11.98;78.34;93053.69;5035957;28;20046;-85
2023/01/07 08:17:22;;;;;;;8.13;3.83;;;;;;;13.20;75.31;93051.22;5052796;28;20037;-81
2023/01/07 08:19:48;;;;;;;7.03;3.88;;;;;;;13.38;73.11;93057.53;5039588;28;20045;-77
2023/01/07 08:22:14;;;;;;;7.20;3.78;;;;;;;13.50;67.99;93052.59;5039230;28;20114;-79
2023/01/07 08:24:39;;;;;;;6.07;3.50;;;;;;;14.32;66.46;93051.06;5020298;28;20049;-79
2023/01/07 08:27:05;;;;;;;7.78;3.85;;;;;;;15.00;61.26;93045.91;5030704;28;20033;-79
2023/01/07 08:29:30;;;;;;;6.38;3.67;;;;;;;15.12;60.46;93045.38;5033165;28;20503;-81
2023/01/07 08:31:56;;;;;;;6.95;3.22;;;;;;;16.09;57.56;93047.44;5017533;28;20491;-80
2023/01/07 08:34:22;;;;;;;9.18;3.85;;;;;;;16.37;53.96;93051.41;5025540;28;20171;-79
2023/01/07 08:36:47;;;;;;;9.52;3.90;;;;;;;16.41;52.47;93044.41;5038167;28;20045;-80
2023/01/07 08:39:13;;;;;;;10.25;3.90;;;;;;;16.09;53.83;93052.72;5036717;28;20072;-80
2023/01/07 08:41:39;;;;;;;7.88;4.30;;;;;;;16.29;51.81;93060.06;5037125;28;20028;-80
2023/01/07 08:44:05;;;;;;;8.35;4.35;;;;;;;17.16;48.47;93051.47;5030745;28;20029;-79
2023/01/07 08:46:31;;;;;;;9.65;4.82;;;;;;;15.88;49.96;93055.13;5027771;28;20109;-79
2023/01/07 08:48:56;;;;;;;8.70;4.07;;;;;;;16.10;50.56;93048.97;5028794;28;20074;-85
2023/01/07 08:51:22;;;;;;;11.90;4.65;;;;;;;15.82;50.68;93057.88;5039460;28;20041;-79
2023/01/07 08:53:47;;;;;;;7.60;3.95;;;;;;;15.16;49.94;93052.38;5020764;28;20043;-79
2023/01/07 08:56:13;;;;;;;9.32;5.53;;;;;;;15.19;52.65;93054.41;5038427;28;20117;-84
2023/01/07 08:58:39;;;;;;;12.75;5.50;;;;;;;14.83;53.40;93054.47;5018405;28;20448;-80
2023/01/07 09:01:06;;;;;;;10.95;5.00;;;;;;;15.09;52.42;93057.31;5038004;28;20030;-80
2023/01/07 09:03:32;;;;;;;11.00;6.55;;;;;;;14.77;52.91;93056.44;5038433;28;20029;-79
2023/01/07 09:05:58;;;;;;;13.95;6.85;;;;;;;15.93;50.56;93050.47;5038333;28;20045;-79
2023/01/07 09:08:24;;;;;;;9.90;5.65;;;;;;;16.55;47.93;93060.13;5019614;28;20053;-80
2023/01/07 09:10:50;;;;;;;14.48;6.38;;;;;;;17.26;45.99;93057.19;5034955;28;20404;-79
2023/01/07 09:13:16;;;;;;;11.18;5.45;;;;;;;16.84;46.00;93056.94;5035059;28;20043;-78
2023/01/07 09:15:41;;;;;;;9.57;4.68;;;;;;;17.20;45.30;93061.13;5034143;28;20562;-80
2023/01/07 09:18:07;;;;;;;9.68;4.00;;;;;;;17.39;44.13;93055.47;5037444;28;20049;-79
2023/01/07 09:20:32;;;;;;;7.32;4.63;;;;;;;16.51;45.95;93047.84;5036469;28;20494;-80
2023/01/07 09:22:58;;;;;;;9.80;5.30;;;;;;;16.91;46.30;93051.16;5018297;28;20038;-79
2023/01/07 09:25:24;;;;;;;13.30;6.07;;;;;;;16.97;45.01;93057.84;5019587;28;20507;-79
2023/01/07 09:27:49;;;;;;;16.15;7.85;;;;;;;16.60;47.10;93046.75;5036068;28;20457;-79
2023/01/07 09:30:15;;;;;;;12.02;6.65;;;;;;;15.58;48.14;93050.31;5035922;28;20038;-80
2023/01/07 09:32:42;;;;;;;14.07;5.30;;;;;;;15.08;49.49;93055.72;5036748;28;20069;-80
2023/01/07 09:35:09;;;;;;;13.70;7.45;;;;;;;14.70;50.33;93057.91;5018022;28;20044;-80
2023/01/07 09:37:35;;;;;;;10.07;5.55;;;;;;;14.49;50.53;93060.19;5036022;28;20736;-80
2023/01/07 09:40:00;;;;;;;13.00;6.15;;;;;;;14.10;52.28;93053.63;5014481;28;20100;-80
2023/01/07 09:42:38;;;;;;;14.27;7.00;;;;;;;14.30;53.83;93061.09;5024802;28;20045;-78
2023/01/07 09:45:03;;;;;;;11.88;5.90;;;;;;;14.85;51.69;93064.72;5034869;28;20092;-79
2023/01/07 09:47:33;;;;;;;8.30;4.45;;;;;;;15.28;49.21;93061.59;5035490;28;20120;-78
2023/01/07 09:50:09;;;;;;;9.43;4.53;;;;;;;14.54;50.77;93067.97;5034129;28;20561;-79
2023/01/07 09:52:42;;;;;;;11.52;5.80;;;;;;;14.75;50.92;93060.47;5035974;28;20444;-79
2023/01/07 09:55:25;;;;;;;11.80;6.57;;;;;;;14.43;51.94;93069.25;5034342;28;20414;-80
2023/01/07 09:57:50;;;;;;;15.50;8.25;;;;;;;13.91;53.42;93067.63;5034222;28;20041;-80
2023/01/07 10:00:20;;;;;;;14.15;7.70;;;;;;;13.73;55.28;93079.81;5034089;28;20103;-80
2023/01/07 10:02:56;;;;;;;12.77;6.97;;;;;;;13.75;55.49;93077.66;5034508;28;20040;-79
2023/01/07 10:05:39;;;;;;;10.48;4.75;;;;;;;12.45;56.40;93073.06;5034699;28;20105;-80
2023/01/07 10:08:32;;;;;;;11.60;5.30;;;;;;;13.14;58.01;93073.41;5035442;28;20034;-79
2023/01/07 10:11:39;;;;;;;13.15;6.80;;;;;;;13.35;55.64;93068.63;5034843;28;20064;-78
2023/01/07 10:14:33;;;;;;;18.42;9.45;;;;;;;13.08;57.53;93058.78;5030904;28;20091;-77
2023/01/07 10:17:36;;;;;;;22.83;10.75;;;;;;;13.44;56.75;93061.66;5014950;28;20048;-78
2023/01/07 10:20:26;;;;;;;19.33;10.55;;;;;;;13.26;58.39;93057.16;5020613;28;20044;-80
2023/01/07 10:23:04;;;;;;;18.42;10.00;;;;;;;13.55;55.11;93056.97;5033576;28;20037;-80
2023/01/07 10:25:42;;;;;;;21.10;11.15;;;;;;;13.26;56.72;93046.66;5029835;28;20784;-80
2023/01/07 10:28:39;;;;;;;16.45;8.18;;;;;;;12.97;56.38;93052.91;5017945;28;20034;-78
2023/01/07 10:31:08;;;;;;;21.65;11.55;;;;;;;13.01;57.45;93042.59;5013454;28;20041;-77
2023/01/07 10:33:34;;;;;;;12.30;5.72;;;;;;;13.01;55.17;93047.84;5030763;28;20091;-77
2023/01/07 10:36:21;;;;;;;7.05;3.33;;;;;;;12.23;57.08;93044.75;4995675;28;20038;-77
2023/01/07 10:39:23;;;;;;;9.80;4.22;;;;;;;12.77;56.21;93043.50;5019539;28;20040;-78
2023/01/07 10:42:10;;;;;;;18.17;9.57;;;;;;;12.25;58.76;93043.41;5035271;28;20338;-80
2023/01/07 10:45:03;;;;;;;11.45;5.20;;;;;;;12.33;57.69;93041.22;5034974;28;20048;-78
2023/01/07 10:47:28;;;;;;;;;;;;;;;12.37;57.00;93044.84;5036535;28;20064;-79
2023/01/07 10:50:18;;;;;;;10.05;4.95;;;;;;;12.10;59.39;93035.72;5035573;28;20299;-78
2023/01/07 10:53:09;;;;;;;6.03;2.45;;;;;;;12.36;56.89;93027.50;5035929;28;20649;-79
2023/01/07 10:56:07;;;;;;;7.93;4.40;;;;;;;12.69;56.34;93033.63;5036729;28;20060;-80
2023/01/07 10:58:39;;;;;;;8.60;3.42;;;;;;;13.16;56.61;93028.44;5023669;28;20071;-79
2023/01/07 11:01:07;;;;;;;6.47;3.15;;;;;;;13.24;52.57;93019.88;5034858;28;20048;-79
2023/01/07 11:03:32;;;;;;;7.13;3.92;;;;;;;13.83;53.35;93013.06;5034369;28;20033;-79
2023/01/07 11:06:06;;;;;;;9.43;5.07;;;;;;;13.80;53.33;93011.00;5034792;28;20036;-78
2023/01/07 11:08:38;;;;;;;15.45;8.10;;;;;;;12.84;58.15;93007.13;5035188;28;20102;-79
2023/01/07 11:11:04;;;;;;;8.88;5.35;;;;;;;12.53;57.24;93003.41;5034305;28;20060;-79
2023/01/07 11:13:32;;;;;;;7.97;4.18;;;;;;;12.19;57.60;92999.91;5035787;28;20041;-80
2023/01/07 11:16:07;;;;;;;17.15;7.50;;;;;;;12.20;58.82;92998.84;5035849;28;20041;-81
2023/01/07 11:18:43;;;;;;;16.58;8.40;;;;;;;12.55;59.21;92998.66;5018173;28;20032;-80
2023/01/07 11:21:09;;;;;;;14.40;7.53;;;;;;;13.06;57.36;92997.81;5035604;28;20041;-80
2023/01/07 11:23:37;;;;;;;13.52;6.70;;;;;;;12.63;57.48;93004.03;5038390;28;20044;-80
2023/01/07 11:26:16;;;;;;;14.00;8.00;;;;;;;12.54;57.73;92995.25;5038637;28;20476;-80
2023/01/07 11:28:50;;;;;;;17.55;8.23;;;;;;;12.28;59.23;92992.19;5049128;28;20373;-79
2023/01/07 11:31:18;;;;;;;11.52;5.68;;;;;;;12.48;57.43;92996.38;5050821;28;20036;-79
2023/01/07 11:33:52;;;;;;;9.00;4.60;;;;;;;12.32;57.61;92989.78;5047403;28;20041;-81
2023/01/07 11:36:19;;;;;;;7.40;3.55;;;;;;;12.43;56.39;92989.34;5040851;28;20124;-80
2023/01/07 11:38:45;;;;;;;15.10;6.63;;;;;;;12.08;57.61;92985.38;5040707;28;20041;-80
2023/01/07 11:41:23;;;;;;;11.68;5.75;;;;;;;11.71;59.27;92976.38;5040912;28;20064;-81
2023/01/07 11:43:51;;;;;;;15.20;6.18;;;;;;;11.24;61.34;92975.28;5039652;28;20040;-80